Grainfield, KS (67737)

2:10 PM CST on February 28, 2015 (GMT -0600)
APRSWXNET Gove KS US | Change Station
CLOSE
Current Station
Personal Weather Station
Location: Gove, KS
Elevation: 2540 ft
Nearby Weather Stations

Elev 2540 ft 38.93 °N, 100.40 °W | Updated 36 minutes ago

Snow
Snow
21 °F
Feels Like 21 °F
N
0
Wind Variable Wind from SSE
Gusts 0.0 mph

Today
High -- | Low -- °F
--% Chance of Precip.
Yesterday
High -- | Low -- °F
Precip. -- in
7:16 AM 6:33 PM
Waxing Gibbous, 79% visible
Pressure 30.14 in
Visibility 5.0 miles
Clouds Overcast 1600 ft
Windchill 21 °F
Dew Point 17 °F
Humidity 83%
Rainfall 0.00 in
Snow Depth Not available.
UV 2 out of 12
Pollen 1.30 out of 12
Air Quality Not available.
Flu Activity Not available.
METAR KCBK 281955Z AUTO 17006KT 5SM -SN OVC016 M07/M08 A3014 RMK AO2

More Conditions Fewer Conditions

Pressure 30.14 in
Visibility 5.0 miles
Clouds Overcast 1600 ft
Windchill 21 °F
Dew Point 17 °F
Humidity 83%
Rainfall 0.00 in
Snow Depth Not available.
UV 2 out of 12
Pollen 1.30 out of 12
Air Quality Not available.
Flu Activity Not available.
METAR KCBK 281955Z AUTO 17006KT 5SM -SN OVC016 M07/M08 A3014 RMK AO2

More Conditions Fewer Conditions

10-Day Weather Forecast

Almanac

Astronomy

Feb. 28, 2015 Rise Set
Actual Time
Civil Twilight
Nautical Twilight
Astronomical Twilight
Moon
Length of Visible Light
Length of Day
Tomorrow will be .
, % of the Moon is Illuminated

Today's Extremes

State Highs State Lows

Community

WunderPhotos

Upload Photos

1,801,125 photos uploaded!

WunderBlogs® & News

Nearby

Air Quality

  Air Quality AQ Index Pollutant
Not available.

Snow Depth

Station Depth Elevation

Earthquake Activity

City Distance Mag. Time & Date
Minimum magnitude displayed is 2.5.

Coastal Water Temperatures

Place Temperature

Nearby Weather Stations